Time;durP1;ratioP1;P1;durP2;ratioP2;P2;SDS_P1;SDS_P2;PMS_P1;PMS_P2;Temp;Humidity;BMP_temperature;BMP_pressure;BME280_temperature;BME280_humidity;BME280_pressure;Samples;Min_cycle;Max_cycle;Signal;HPM_P1;HPM_P2
2022/09/10 00:01:13;;;;;;;13.07;11.77;;;;;;;22.20;100.00;99931.03;5131193;27;20019;-71
2022/09/10 00:03:38;;;;;;;11.73;10.48;;;;;;;22.18;99.71;99933.13;5131125;27;20026;-72
2022/09/10 00:06:06;;;;;;;12.25;10.60;;;;;;;22.07;99.64;99914.72;5123999;27;20023;-72
2022/09/10 00:08:33;;;;;;;13.13;11.75;;;;;;;22.07;100.00;99927.53;5111764;27;20039;-72
2022/09/10 00:11:03;;;;;;;12.70;11.40;;;;;;;22.00;100.00;99926.72;5129402;27;20100;-72
2022/09/10 00:13:29;;;;;;;12.85;11.55;;;;;;;21.98;100.00;99937.00;5129157;27;20050;-72
2022/09/10 00:15:54;;;;;;;13.63;12.00;;;;;;;21.95;100.00;99932.84;5130431;27;20062;-68
2022/09/10 00:18:21;;;;;;;13.55;12.25;;;;;;;21.89;100.00;99932.84;5129837;27;20039;-68
2022/09/10 00:20:53;;;;;;;12.85;11.65;;;;;;;21.86;100.00;99930.56;5129566;27;20035;-68
2022/09/10 00:23:22;;;;;;;12.98;11.68;;;;;;;21.87;100.00;99941.28;5114368;27;20066;-69
2022/09/10 00:25:48;;;;;;;12.43;11.23;;;;;;;21.78;100.00;99937.13;5129544;27;20038;-69
2022/09/10 00:28:15;;;;;;;13.13;11.75;;;;;;;21.81;100.00;99953.06;5110423;27;20023;-71
2022/09/10 00:30:46;;;;;;;13.13;11.82;;;;;;;21.79;100.00;99951.59;5109638;27;20501;-71
2022/09/10 00:33:13;;;;;;;13.77;12.38;;;;;;;21.74;100.00;99941.31;5109934;28;20160;-71
2022/09/10 00:35:39;;;;;;;13.20;11.90;;;;;;;21.80;100.00;99954.09;5113534;27;20401;-71
2022/09/10 00:38:06;;;;;;;13.10;11.68;;;;;;;21.77;100.00;99940.88;5121961;27;20058;-71
2022/09/10 00:40:32;;;;;;;12.82;11.48;;;;;;;21.68;100.00;99930.38;5107674;28;20034;-68
2022/09/10 00:42:58;;;;;;;11.77;10.43;;;;;;;21.72;100.00;99939.81;5109713;28;20053;-69
2022/09/10 00:45:32;;;;;;;12.15;10.85;;;;;;;21.62;100.00;99926.63;5110012;28;20023;-70
2022/09/10 00:48:06;;;;;;;;;;;;;;;21.67;100.00;99936.91;5110128;28;20442;-69
2022/09/10 00:50:40;;;;;;;13.32;12.05;;;;;;;21.67;100.00;99924.09;5140974;27;19926;-69
2022/09/10 00:53:11;;;;;;;13.07;11.13;;;;;;;21.68;100.00;99933.13;5122442;27;20114;-70
2022/09/10 00:55:41;;;;;;;12.82;10.68;;;;;;;21.61;100.00;99924.13;5118636;27;20023;-70
2022/09/10 00:58:10;;;;;;;13.30;11.40;;;;;;;21.58;100.00;99917.22;5114831;27;20122;-70
2022/09/10 01:00:37;;;;;;;15.13;11.60;;;;;;;21.57;100.00;99915.50;5114362;27;20095;-71
2022/09/10 01:03:05;;;;;;;16.83;12.23;;;;;;;21.56;100.00;99913.00;5129908;27;20031;-71
2022/09/10 01:05:32;;;;;;;17.00;12.63;;;;;;;21.48;100.00;99914.06;5115081;27;20032;-71
2022/09/10 01:07:58;;;;;;;14.18;12.70;;;;;;;21.53;100.00;99919.72;5109470;27;20426;-71
2022/09/10 01:10:28;;;;;;;13.98;12.57;;;;;;;21.53;100.00;99918.88;5122929;27;20035;-71
2022/09/10 01:13:17;;;;;;;12.98;11.77;;;;;;;21.41;100.00;99904.25;5109606;28;20023;-71
2022/09/10 01:15:51;;;;;;;14.07;12.73;;;;;;;21.46;100.00;99905.28;5114242;27;20027;-70
2022/09/10 01:18:17;;;;;;;13.98;12.55;;;;;;;21.40;100.00;99902.53;5118767;27;20027;-71
2022/09/10 01:21:04;;;;;;;15.10;13.02;;;;;;;21.34;100.00;99890.59;5106999;28;20726;-70
2022/09/10 01:23:51;;;;;;;14.35;13.05;;;;;;;21.31;100.00;99890.22;5108886;28;20027;-70
2022/09/10 01:26:28;;;;;;;14.35;12.90;;;;;;;21.29;100.00;99873.22;5108350;27;20020;-70
2022/09/10 01:29:19;;;;;;;16.13;13.85;;;;;;;21.20;100.00;99864.44;5130108;27;20124;-70
2022/09/10 01:31:54;;;;;;;14.95;12.82;;;;;;;21.25;100.00;99867.31;5106958;28;20027;-70
2022/09/10 01:34:33;;;;;;;14.10;12.80;;;;;;;21.23;100.00;99864.00;5107806;28;20031;-74
2022/09/10 01:37:11;;;;;;;14.85;13.35;;;;;;;21.21;100.00;99854.31;5109813;28;20027;-76
2022/09/10 01:39:38;;;;;;;15.43;13.90;;;;;;;21.20;100.00;99833.56;5109884;28;20057;-76
2022/09/10 01:42:04;;;;;;;14.50;13.10;;;;;;;21.19;100.00;99832.75;5109859;28;20027;-76
2022/09/10 01:44:48;;;;;;;14.98;13.48;;;;;;;21.18;100.00;99827.50;5108578;28;20429;-76
2022/09/10 01:47:53;;;;;;;14.07;12.57;;;;;;;21.15;100.00;99822.47;5105090;28;20034;-76
2022/09/10 01:50:41;;;;;;;14.32;13.00;;;;;;;21.21;100.00;99851.59;5102452;28;20028;-76
2022/09/10 01:53:26;;;;;;;14.90;13.30;;;;;;;21.20;100.00;99863.56;5104427;28;20035;-75
2022/09/10 01:56:12;;;;;;;14.90;13.40;;;;;;;21.07;100.00;99860.88;5107673;28;20024;-75
2022/09/10 01:58:40;;;;;;;15.88;12.55;;;;;;;21.00;100.00;99860.91;5114455;27;20023;-75
2022/09/10 02:01:11;;;;;;;15.35;13.77;;;;;;;21.03;100.00;99867.81;5117339;27;20062;-75
2022/09/10 02:03:39;;;;;;;15.40;13.80;;;;;;;20.93;100.00;99859.19;5110469;28;20394;-75
2022/09/10 02:06:08;;;;;;;16.25;14.55;;;;;;;20.92;100.00;99860.25;5128089;27;20019;-75
2022/09/10 02:08:37;;;;;;;14.98;13.48;;;;;;;20.86;100.00;99844.75;5127637;27;20043;-75
2022/09/10 02:11:05;;;;;;;15.13;13.63;;;;;;;20.85;100.00;99848.50;5117315;27;20031;-70
2022/09/10 02:13:33;;;;;;;14.45;12.95;;;;;;;20.85;100.00;99845.78;5122689;27;20031;-69
2022/09/10 02:16:01;;;;;;;14.77;13.18;;;;;;;20.80;100.00;99829.22;5122467;27;20429;-70
2022/09/10 02:18:28;;;;;;;15.70;13.70;;;;;;;20.80;100.00;99823.78;5102735;28;20034;-70
2022/09/10 02:20:56;;;;;;;15.55;13.75;;;;;;;20.78;100.00;99818.53;5108078;28;20037;-70
2022/09/10 02:23:30;;;;;;;14.23;12.82;;;;;;;20.81;100.00;99820.84;5125649;27;20027;-69
2022/09/10 02:25:56;;;;;;;15.52;13.65;;;;;;;20.63;100.00;99784.41;5120043;28;20035;-69
2022/09/10 02:28:21;;;;;;;13.70;12.40;;;;;;;20.68;100.00;99806.38;5109231;28;20023;-69
2022/09/10 02:30:47;;;;;;;16.80;14.30;;;;;;;20.85;100.00;99827.53;5118754;28;20071;-69
2022/09/10 02:33:15;;;;;;;15.00;13.38;;;;;;;20.85;100.00;99840.31;5107783;28;20845;-69
2022/09/10 02:35:41;;;;;;;14.60;13.10;;;;;;;20.85;100.00;99834.88;5107000;28;20024;-74
2022/09/10 02:38:07;;;;;;;15.50;14.00;;;;;;;20.76;100.00;99828.81;5107694;28;20036;-74
2022/09/10 02:40:33;;;;;;;17.50;13.70;;;;;;;20.81;100.00;99839.94;5107799;28;20027;-74
2022/09/10 02:42:58;;;;;;;15.13;13.50;;;;;;;20.83;100.00;99839.72;5109259;28;20067;-73
2022/09/10 02:45:24;;;;;;;15.32;13.73;;;;;;;20.81;100.00;99842.66;5114673;28;20046;-73
2022/09/10 02:47:49;;;;;;;14.52;13.05;;;;;;;20.77;100.00;99833.22;5118324;27;20057;-73
2022/09/10 02:50:16;;;;;;;15.05;13.55;;;;;;;20.77;100.00;99835.09;5108861;28;20145;-74
2022/09/10 02:52:45;;;;;;;15.80;13.38;;;;;;;20.67;100.00;99811.00;5118538;28;20030;-74
2022/09/10 02:55:11;;;;;;;14.82;13.32;;;;;;;20.75;100.00;99826.28;5119584;27;20514;-72
2022/09/10 02:57:38;;;;;;;14.07;12.63;;;;;;;20.74;100.00;99825.47;5113963;28;20569;-72
2022/09/10 03:00:05;;;;;;;15.13;13.45;;;;;;;20.72;100.00;99824.84;5107082;28;20023;-72
2022/09/10 03:02:31;;;;;;;15.23;13.48;;;;;;;20.65;100.00;99814.97;5127004;27;20397;-72
2022/09/10 03:04:56;;;;;;;13.98;12.65;;;;;;;20.63;100.00;99825.28;5118284;27;20107;-72
2022/09/10 03:07:22;;;;;;;14.70;13.30;;;;;;;20.57;100.00;99820.66;5121095;28;20052;-72
2022/09/10 03:09:48;;;;;;;14.63;13.20;;;;;;;20.58;100.00;99838.69;5108215;28;20028;-72
2022/09/10 03:12:15;;;;;;;14.45;13.15;;;;;;;20.55;100.00;99833.66;5108290;28;20027;-69
2022/09/10 03:14:41;;;;;;;14.63;13.23;;;;;;;20.51;100.00;99824.22;5107446;28;20031;-69
2022/09/10 03:17:08;;;;;;;15.40;12.82;;;;;;;20.42;100.00;99820.03;5113217;28;20057;-69
2022/09/10 03:19:35;;;;;;;15.43;13.70;;;;;;;20.45;100.00;99828.63;5126721;27;20072;-69
2022/09/10 03:22:00;;;;;;;16.85;13.88;;;;;;;20.41;100.00;99824.63;5110357;27;20039;-70
2022/09/10 03:24:27;;;;;;;16.05;14.48;;;;;;;20.31;100.00;99815.22;5111639;27;20028;-69
2022/09/10 03:26:53;;;;;;;15.85;14.20;;;;;;;20.33;100.00;99826.72;5111041;27;20447;-69
2022/09/10 03:29:19;;;;;;;15.32;13.73;;;;;;;20.38;100.00;99837.84;5109249;28;20033;-69
2022/09/10 03:31:45;;;;;;;16.60;14.90;;;;;;;20.32;100.00;99835.97;5128433;27;20055;-69
2022/09/10 03:34:11;;;;;;;16.33;14.73;;;;;;;20.22;100.00;99824.63;5131505;27;20031;-69
2022/09/10 03:36:37;;;;;;;15.68;14.07;;;;;;;20.28;100.00;99840.16;5113288;27;20115;-69
2022/09/10 03:39:03;;;;;;;16.95;15.05;;;;;;;20.21;100.00;99840.13;5117918;27;20043;-69
2022/09/10 03:41:30;;;;;;;16.33;14.73;;;;;;;20.26;100.00;99858.56;5129795;27;20072;-69
2022/09/10 03:43:56;;;;;;;16.50;14.80;;;;;;;20.23;100.00;99859.84;5129102;27;20041;-69
2022/09/10 03:46:23;;;;;;;15.27;13.85;;;;;;;20.14;100.00;99852.91;5126039;27;20402;-70
2022/09/10 03:48:48;;;;;;;17.15;15.35;;;;;;;20.17;100.00;99857.94;5109268;28;20039;-70
2022/09/10 03:51:14;;;;;;;17.25;15.57;;;;;;;20.13;100.00;99851.25;5110720;27;20046;-69
2022/09/10 03:53:40;;;;;;;15.63;14.02;;;;;;;20.15;100.00;99855.41;5113736;27;20062;-69
2022/09/10 03:56:07;;;;;;;16.27;14.55;;;;;;;20.24;100.00;99875.13;5110802;28;20023;-69
2022/09/10 03:58:34;;;;;;;16.00;14.50;;;;;;;20.18;100.00;99884.13;5110407;28;20028;-69
2022/09/10 04:01:00;;;;;;;16.42;14.77;;;;;;;20.21;100.00;99882.88;5113406;27;20039;-69
2022/09/10 04:03:26;;;;;;;16.95;14.93;;;;;;;20.19;100.00;99885.81;5109724;27;20031;-69
2022/09/10 04:05:51;;;;;;;16.90;15.20;;;;;;;20.22;100.00;99888.13;5124971;27;20080;-69
2022/09/10 04:08:17;;;;;;;16.70;14.93;;;;;;;20.17;100.00;99880.56;5130079;27;20055;-69
2022/09/10 04:10:47;;;;;;;17.17;15.35;;;;;;;20.17;100.00;99883.31;5126866;27;20076;-73
2022/09/10 04:13:12;;;;;;;17.58;15.02;;;;;;;20.23;100.00;99883.50;5111214;28;20502;-72
2022/09/10 04:15:39;;;;;;;18.38;16.38;;;;;;;20.26;100.00;99889.38;5123491;27;20031;-72
2022/09/10 04:18:05;;;;;;;19.73;16.92;;;;;;;20.24;100.00;99888.75;5124496;27;20126;-72
2022/09/10 04:20:32;;;;;;;19.90;16.88;;;;;;;20.16;100.00;99892.50;5108914;27;20023;-73
2022/09/10 04:22:57;;;;;;;19.05;17.02;;;;;;;20.11;100.00;99892.28;5108977;28;20028;-72
2022/09/10 04:25:23;;;;;;;19.30;16.17;;;;;;;20.12;100.00;99893.97;5110609;27;20027;-73
2022/09/10 04:27:49;;;;;;;18.40;16.52;;;;;;;20.13;100.00;99892.09;5112986;27;20477;-73
2022/09/10 04:30:16;;;;;;;18.10;16.20;;;;;;;20.16;100.00;99894.41;5109898;28;20024;-73
2022/09/10 04:32:43;;;;;;;18.05;16.10;;;;;;;20.25;100.00;99895.88;5111554;27;20031;-73
2022/09/10 04:35:10;;;;;;;22.10;16.52;;;;;;;20.23;100.00;99878.91;5107869;28;20034;-72
2022/09/10 04:37:36;;;;;;;16.38;14.77;;;;;;;20.18;100.00;99881.41;5109740;28;20600;-72
2022/09/10 04:40:01;;;;;;;17.67;15.88;;;;;;;20.13;100.00;99881.19;5108154;28;20106;-73
2022/09/10 04:42:27;;;;;;;15.57;13.23;;;;;;;20.12;100.00;99874.91;5108989;28;20398;-72
2022/09/10 04:44:53;;;;;;;16.58;14.88;;;;;;;20.07;100.00;99885.56;5108184;28;20024;-72
2022/09/10 04:47:20;;;;;;;17.40;14.43;;;;;;;20.09;100.00;99878.00;5110975;27;20032;-72
2022/09/10 04:49:45;;;;;;;14.55;13.05;;;;;;;19.99;100.00;99874.84;5111403;27;20132;-72
2022/09/10 04:52:12;;;;;;;15.57;13.65;;;;;;;20.03;100.00;99891.63;5111666;27;20061;-72
2022/09/10 04:54:38;;;;;;;14.05;12.50;;;;;;;20.06;100.00;99875.69;5105999;28;20035;-69
2022/09/10 04:57:04;;;;;;;14.75;12.00;;;;;;;20.00;100.00;99864.78;5108602;28;20031;-69
2022/09/10 04:59:30;;;;;;;13.90;11.32;;;;;;;20.01;100.00;99874.63;5106863;28;20031;-68
2022/09/10 05:01:56;;;;;;;13.38;10.32;;;;;;;20.10;100.00;99876.13;5109007;27;20042;-68
2022/09/10 05:04:22;;;;;;;11.02;9.82;;;;;;;20.10;100.00;99882.41;5108908;28;20031;-69
2022/09/10 05:06:49;;;;;;;13.32;8.63;;;;;;;20.08;100.00;99868.16;5109107;27;20375;-69
2022/09/10 05:09:15;;;;;;;13.63;8.85;;;;;;;20.04;100.00;99860.59;5108538;28;20042;-68
2022/09/10 05:11:41;;;;;;;9.60;8.25;;;;;;;20.07;100.00;99871.09;5107299;27;20471;-69
2022/09/10 05:14:07;;;;;;;8.35;7.55;;;;;;;20.03;100.00;99883.44;5111026;27;20693;-68
2022/09/10 05:16:32;;;;;;;8.50;7.15;;;;;;;20.04;100.00;99885.97;5108565;27;20020;-68
2022/09/10 05:18:58;;;;;;;10.25;7.32;;;;;;;20.09;100.00;99896.25;5108710;28;20023;-68
2022/09/10 05:21:23;;;;;;;9.38;8.10;;;;;;;20.14;100.00;99913.66;5109037;28;20024;-69
2022/09/10 05:23:49;;;;;;;12.82;7.97;;;;;;;20.14;100.00;99916.38;5088691;28;20085;-68
2022/09/10 05:26:14;;;;;;;10.38;7.53;;;;;;;20.17;100.00;99920.56;5088583;28;20051;-70
2022/09/10 05:28:41;;;;;;;8.38;6.18;;;;;;;20.12;100.00;99923.09;5104363;28;20391;-70
2022/09/10 05:31:08;;;;;;;8.48;5.63;;;;;;;20.03;100.00;99927.00;5107609;28;20063;-70
2022/09/10 05:33:35;;;;;;;9.60;6.25;;;;;;;19.93;100.00;99919.22;5114039;27;20035;-69
2022/09/10 05:36:01;;;;;;;6.97;5.43;;;;;;;19.89;100.00;99920.66;5101186;28;20122;-70
2022/09/10 05:38:27;;;;;;;7.15;5.57;;;;;;;19.82;100.00;99919.81;5108796;27;20111;-70
2022/09/10 05:40:52;;;;;;;8.88;5.32;;;;;;;19.94;100.00;99933.66;5111883;27;20026;-69
2022/09/10 05:43:18;;;;;;;11.63;5.15;;;;;;;19.96;100.00;99932.41;5127136;27;20034;-70
2022/09/10 05:45:43;;;;;;;7.28;5.13;;;;;;;19.82;100.00;99917.09;5114099;27;20030;-69
2022/09/10 05:48:09;;;;;;;8.13;4.38;;;;;;;19.87;100.00;99914.56;5106884;28;20054;-70
2022/09/10 05:50:34;;;;;;;5.68;4.55;;;;;;;19.78;100.00;99904.09;5108344;28;20679;-70
2022/09/10 05:53:00;;;;;;;6.03;4.55;;;;;;;19.81;100.00;99903.69;5108282;28;20505;-70
2022/09/10 05:55:25;;;;;;;5.97;4.72;;;;;;;19.89;100.00;99904.34;5109059;28;20028;-71
2022/09/10 05:57:51;;;;;;;5.25;4.43;;;;;;;19.78;100.00;99898.66;5108684;28;20031;-71
2022/09/10 06:00:16;;;;;;;6.45;4.65;;;;;;;19.82;100.00;99917.09;5108869;28;20096;-71
2022/09/10 06:02:44;;;;;;;6.03;4.30;;;;;;;19.96;100.00;99931.59;5109392;28;20020;-71
2022/09/10 06:05:09;;;;;;;5.88;4.18;;;;;;;19.96;100.00;99926.97;5108069;27;20563;-71
2022/09/10 06:07:35;;;;;;;6.70;4.30;;;;;;;19.97;100.00;99934.13;5107144;28;20079;-72
2022/09/10 06:10:00;;;;;;;4.88;3.85;;;;;;;19.89;100.00;99947.88;5110488;27;20060;-72
2022/09/10 06:12:26;;;;;;;7.88;4.15;;;;;;;19.81;100.00;99922.72;5128436;27;20142;-71
2022/09/10 06:14:52;;;;;;;5.68;3.58;;;;;;;19.84;100.00;99942.22;5121125;27;20034;-71
2022/09/10 06:17:18;;;;;;;7.65;3.78;;;;;;;19.74;100.00;99941.75;5109000;28;20027;-71
2022/09/10 06:19:45;;;;;;;6.57;3.78;;;;;;;19.80;100.00;99949.09;5108738;28;20055;-72
2022/09/10 06:22:11;;;;;;;5.05;3.10;;;;;;;19.85;100.00;99940.31;5125840;27;20027;-70
2022/09/10 06:24:37;;;;;;;3.70;2.88;;;;;;;19.75;100.00;99938.00;5106792;28;20027;-70
2022/09/10 06:27:04;;;;;;;4.65;3.05;;;;;;;19.78;100.00;99945.75;5110220;28;20038;-70
2022/09/10 06:29:31;;;;;;;4.38;3.10;;;;;;;19.86;99.53;99947.44;5107104;28;20031;-70
2022/09/10 06:31:56;;;;;;;5.43;2.90;;;;;;;19.87;99.18;99958.13;5108516;28;20451;-70
2022/09/10 06:34:21;;;;;;;4.88;2.10;;;;;;;19.78;98.78;99948.47;5108204;28;20046;-71
2022/09/10 06:36:48;;;;;;;3.67;2.13;;;;;;;19.58;100.00;99950.25;5108369;28;20020;-71
2022/09/10 06:39:14;;;;;;;2.53;2.33;;;;;;;19.58;99.80;99952.97;5107744;28;20031;-71
2022/09/10 06:41:39;;;;;;;2.78;2.15;;;;;;;19.58;99.79;99973.91;5107289;28;20719;-71
2022/09/10 06:44:05;;;;;;;4.63;2.13;;;;;;;19.51;99.92;99971.13;5109919;28;20056;-71
2022/09/10 06:46:30;;;;;;;4.72;2.40;;;;;;;19.51;100.00;99979.28;5106182;28;20031;-70
2022/09/10 06:49:01;;;;;;;6.30;2.33;;;;;;;19.46;100.00;99964.63;5105191;28;20047;-69
2022/09/10 06:51:28;;;;;;;6.65;2.15;;;;;;;19.39;100.00;99964.59;5107360;28;20023;-69
2022/09/10 06:53:54;;;;;;;2.47;1.85;;;;;;;19.43;100.00;99962.28;5116247;27;20076;-69
2022/09/10 06:56:19;;;;;;;3.72;1.92;;;;;;;19.31;98.82;99939.44;5117985;27;20032;-69
2022/09/10 06:58:45;;;;;;;1.88;1.73;;;;;;;19.20;99.29;99948.09;5112326;27;20035;-69
2022/09/10 07:01:16;;;;;;;6.05;2.28;;;;;;;19.20;100.00;99950.81;5124677;27;20038;-68
2022/09/10 07:03:42;;;;;;;6.05;1.92;;;;;;;19.22;100.00;99959.63;5130604;27;20054;-69
2022/09/10 07:06:12;;;;;;;2.25;1.45;;;;;;;19.25;100.00;99970.09;5130127;27;20027;-69
2022/09/10 07:08:38;;;;;;;1.98;1.73;;;;;;;19.21;99.80;99949.78;5123693;27;20058;-69
2022/09/10 07:11:06;;;;;;;3.65;1.73;;;;;;;19.32;98.87;99958.25;5107076;28;20081;-69
2022/09/10 07:13:33;;;;;;;2.35;1.83;;;;;;;19.43;98.33;99954.13;5111751;27;20076;-69
2022/09/10 07:15:58;;;;;;;2.33;2.10;;;;;;;19.53;96.96;99958.19;5121880;27;20039;-69
2022/09/10 07:18:25;;;;;;;3.20;1.50;;;;;;;19.45;98.27;99944.72;5130405;27;20084;-68
2022/09/10 07:20:50;;;;;;;2.45;1.50;;;;;;;19.49;99.06;99950.63;5129711;27;20150;-68
2022/09/10 07:23:18;;;;;;;2.65;2.08;;;;;;;19.64;98.79;99960.31;5114198;27;20169;-68
2022/09/10 07:25:43;;;;;;;4.40;2.00;;;;;;;19.63;99.49;99942.31;5111106;27;20034;-69
2022/09/10 07:28:12;;;;;;;6.50;1.65;;;;;;;19.96;93.84;99956.09;5115079;27;20098;-69
2022/09/10 07:30:39;;;;;;;3.47;1.60;;;;;;;19.98;94.43;99945.81;5110871;27;20024;-68
2022/09/10 07:33:05;;;;;;;3.72;1.45;;;;;;;20.27;92.28;99980.09;5111632;27;20038;-69
2022/09/10 07:35:33;;;;;;;3.88;1.88;;;;;;;20.16;91.65;99952.41;5117708;27;20057;-69
2022/09/10 07:37:59;;;;;;;6.13;1.92;;;;;;;20.23;90.85;99985.13;5123482;27;20189;-68
2022/09/10 07:40:26;;;;;;;1.73;1.40;;;;;;;20.07;92.78;99988.16;5110908;27;20110;-68
2022/09/10 07:42:54;;;;;;;4.28;1.63;;;;;;;19.93;94.24;99978.28;5109348;27;20028;-69
2022/09/10 07:45:20;;;;;;;3.53;1.88;;;;;;;20.02;91.40;99999.66;5129521;27;20521;-68
2022/09/10 07:47:47;;;;;;;3.65;1.70;;;;;;;20.04;90.60;99986.72;5130450;27;20374;-68
2022/09/10 07:50:13;;;;;;;3.20;1.88;;;;;;;20.02;91.09;99986.06;5125816;27;20046;-69
2022/09/10 07:52:39;;;;;;;6.55;1.90;;;;;;;19.98;92.13;99986.66;5109051;28;20089;-68
2022/09/10 07:55:05;;;;;;;3.63;1.83;;;;;;;19.92;92.40;99976.56;5110031;27;20035;-68
2022/09/10 07:57:33;;;;;;;2.78;2.03;;;;;;;20.01;93.23;99969.91;5128727;27;20050;-69
2022/09/10 07:59:59;;;;;;;2.97;1.60;;;;;;;20.11;91.13;99973.97;5130771;27;20094;-68
2022/09/10 08:02:25;;;;;;;5.00;1.80;;;;;;;20.07;92.14;99964.50;5129486;27;20679;-69
2022/09/10 08:04:51;;;;;;;2.53;1.63;;;;;;;20.19;92.31;99983.84;5122042;27;20122;-68
2022/09/10 08:07:17;;;;;;;2.00;1.40;;;;;;;20.22;92.34;99985.31;5108221;27;20188;-69
2022/09/10 08:09:42;;;;;;;3.60;2.15;;;;;;;20.40;90.02;99974.69;5110693;27;20118;-68
2022/09/10 08:12:08;;;;;;;3.28;1.58;;;;;;;20.63;88.86;99986.06;5124248;27;20027;-68
2022/09/10 08:14:36;;;;;;;3.72;1.48;;;;;;;20.71;87.30;99985.84;5126534;27;20470;-68
2022/09/10 08:17:01;;;;;;;2.10;1.60;;;;;;;20.90;85.30;99982.31;5127901;27;20063;-68
2022/09/10 08:19:27;;;;;;;2.38;1.40;;;;;;;20.90;86.02;99999.53;5126311;27;20495;-68
2022/09/10 08:21:53;;;;;;;2.97;1.40;;;;;;;21.01;86.17;99993.47;5131118;27;20019;-68
2022/09/10 08:24:18;;;;;;;2.42;1.60;;;;;;;21.06;88.43;100011.94;5117465;27;20100;-69
2022/09/10 08:26:43;;;;;;;3.72;1.65;;;;;;;21.38;82.88;100022.00;5109868;28;20020;-69
2022/09/10 08:29:09;;;;;;;2.25;1.42;;;;;;;21.60;80.35;100018.81;5109077;28;20019;-68
2022/09/10 08:31:34;;;;;;;2.40;1.75;;;;;;;21.57;81.26;100024.69;5109686;28;20023;-67
2022/09/10 08:34:00;;;;;;;3.65;1.67;;;;;;;21.43;81.23;100022.19;5109698;28;20027;-68
2022/09/10 08:36:26;;;;;;;3.83;1.60;;;;;;;21.28;82.33;100024.31;5110039;28;20039;-67
2022/09/10 08:38:53;;;;;;;3.70;1.75;;;;;;;21.24;83.34;100026.63;5109327;28;20040;-68
2022/09/10 08:41:22;;;;;;;1.98;1.50;;;;;;;21.23;83.22;100026.81;5109466;28;20028;-68
2022/09/10 08:44:15;;;;;;;3.30;1.65;;;;;;;21.27;82.97;100028.06;5109294;28;20583;-68
2022/09/10 08:46:48;;;;;;;2.75;1.90;;;;;;;21.08;84.73;100031.63;5103769;28;20066;-67
2022/09/10 08:49:35;;;;;;;3.05;1.55;;;;;;;21.07;86.02;100021.78;5109058;28;20081;-68
2022/09/10 08:52:28;;;;;;;2.85;1.58;;;;;;;21.00;85.05;100016.34;5113033;27;20031;-67
2022/09/10 08:55:08;;;;;;;4.57;1.90;;;;;;;21.03;86.59;100021.38;5108892;27;20051;-71
2022/09/10 08:57:54;;;;;;;2.80;1.75;;;;;;;21.12;86.50;100016.56;5105068;28;20391;-71
2022/09/10 09:00:22;;;;;;;2.50;2.05;;;;;;;21.22;84.40;100006.88;5114586;27;20114;-71
2022/09/10 09:02:56;;;;;;;3.05;2.08;;;;;;;21.62;81.68;100021.31;5129158;27;20499;-71
2022/09/10 09:05:24;;;;;;;3.72;1.98;;;;;;;21.74;82.13;100015.03;5110908;27;20043;-71
2022/09/10 09:07:51;;;;;;;3.38;2.13;;;;;;;21.97;80.48;100017.28;5111692;27;20047;-71
2022/09/10 09:10:23;;;;;;;3.75;1.70;;;;;;;22.42;80.68;100019.00;5108388;27;20055;-71
2022/09/10 09:13:05;;;;;;;4.13;1.92;;;;;;;23.51;76.50;100017.63;5123292;27;20530;-71
2022/09/10 09:15:50;;;;;;;3.30;1.80;;;;;;;24.96;65.36;100001.91;5127671;27;20106;-71
2022/09/10 09:18:55;;;;;;;3.50;1.65;;;;;;;25.48;62.07;100009.28;5128387;27;20042;-71
2022/09/10 09:21:41;;;;;;;2.25;1.45;;;;;;;25.50;61.23;99996.97;5129068;27;20031;-71
2022/09/10 09:24:21;;;;;;;2.10;1.30;;;;;;;26.23;59.30;99997.25;5117894;27;20551;-72
2022/09/10 09:26:48;;;;;;;2.03;1.35;;;;;;;27.18;56.08;99990.84;5099810;27;20832;-72
2022/09/10 09:29:36;;;;;;;3.95;1.58;;;;;;;27.65;53.56;99994.94;5102185;27;20493;-71
2022/09/10 09:32:05;;;;;;;5.70;1.55;;;;;;;27.58;51.43;99998.94;5113998;27;20125;-71
2022/09/10 09:34:40;;;;;;;1.60;1.10;;;;;;;27.92;51.68;100000.59;5093287;27;20024;-71
2022/09/10 09:37:21;;;;;;;2.80;1.15;;;;;;;29.30;47.99;100003.56;5094518;28;20036;-72
2022/09/10 09:40:25;;;;;;;2.78;1.15;;;;;;;30.43;44.59;99996.28;5087407;28;20036;-72
2022/09/10 09:43:08;;;;;;;3.70;1.27;;;;;;;30.27;44.55;99993.72;5071049;28;20770;-71
2022/09/10 09:45:37;;;;;;;2.70;1.35;;;;;;;30.57;43.19;99989.09;5083448;28;20052;-72
2022/09/10 09:48:12;;;;;;;1.95;1.17;;;;;;;29.91;44.46;99986.31;5083857;28;20044;-71
2022/09/10 09:50:40;;;;;;;2.60;1.10;;;;;;;29.09;46.46;99985.16;5089975;28;20035;-71
2022/09/10 09:53:06;;;;;;;6.68;1.73;;;;;;;28.83;47.08;99994.25;5096382;28;20024;-71
2022/09/10 09:55:36;;;;;;;2.20;1.52;;;;;;;28.41;48.23;99991.28;5102275;27;20035;-71
2022/09/10 09:58:23;;;;;;;1.80;1.20;;;;;;;28.12;48.74;100003.63;5089643;28;20032;-71
2022/09/10 10:01:04;;;;;;;4.13;1.40;;;;;;;27.70;50.37;100002.44;5107758;28;20047;-71
2022/09/10 10:03:47;;;;;;;2.03;1.30;;;;;;;27.49;51.47;100003.22;5099719;28;20024;-70
2022/09/10 10:06:14;;;;;;;7.13;1.55;;;;;;;27.01;52.16;99991.94;5102489;27;20437;-71
2022/09/10 10:09:02;;;;;;;3.53;1.67;;;;;;;26.93;52.32;100001.44;5098865;28;20083;-71
2022/09/10 10:11:50;;;;;;;2.40;1.90;;;;;;;26.50;54.40;99992.84;5127913;27;20024;-71
2022/09/10 10:14:19;;;;;;;3.72;1.80;;;;;;;26.78;52.76;100005.81;5093287;28;20450;-71
2022/09/10 10:16:48;;;;;;;3.53;1.58;;;;;;;26.65;52.41;100001.44;5087504;28;20380;-69
2022/09/10 10:19:37;;;;;;;2.30;1.55;;;;;;;26.27;53.95;100001.19;5100105;28;20024;-70
2022/09/10 10:22:26;;;;;;;3.92;1.95;;;;;;;26.03;54.57;99997.69;5087101;28;20748;-70
2022/09/10 10:24:53;;;;;;;2.92;1.58;;;;;;;25.99;54.40;99990.16;5093641;28;20098;-70
2022/09/10 10:27:34;;;;;;;3.38;1.70;;;;;;;25.60;56.18;99993.66;5105731;28;20038;-69
2022/09/10 10:30:01;;;;;;;2.05;1.70;;;;;;;25.33;56.91;99998.78;5108309;28;20028;-67
2022/09/10 10:32:49;;;;;;;3.33;1.52;;;;;;;25.33;57.07;99987.78;5111915;28;20484;-66
2022/09/10 10:35:29;;;;;;;2.33;2.00;;;;;;;25.18;57.55;99992.88;5087163;28;20100;-67
2022/09/10 10:38:28;;;;;;;2.40;2.15;;;;;;;25.52;56.23;99981.09;5111460;28;20063;-67
2022/09/10 10:41:15;;;;;;;2.85;1.80;;;;;;;25.33;57.52;99984.19;5107484;28;20035;-66
2022/09/10 10:44:13;;;;;;;3.00;2.10;;;;;;;25.26;57.34;99980.69;5109507;27;20026;-66
2022/09/10 10:47:02;;;;;;;4.32;2.30;;;;;;;25.36;56.83;99981.81;5107411;28;20051;-66
2022/09/10 10:49:48;;;;;;;10.38;5.28;;;;;;;25.20;58.35;99978.91;5100028;28;20035;-67
2022/09/10 10:52:43;;;;;;;4.30;2.70;;;;;;;25.11;59.40;99975.66;5109966;28;20469;-66
2022/09/10 10:55:17;;;;;;;3.72;2.25;;;;;;;25.19;58.02;99964.34;5063341;28;20065;-66
2022/09/10 10:58:01;;;;;;;2.25;1.88;;;;;;;25.25;58.01;99979.03;5106104;28;20038;-66
2022/09/10 11:00:31;;;;;;;2.90;1.90;;;;;;;25.49;56.31;99978.00;5106209;28;20039;-66
2022/09/10 11:03:17;;;;;;;2.47;1.70;;;;;;;25.29;56.57;99967.34;5108175;28;20114;-66
2022/09/10 11:05:53;;;;;;;3.72;1.83;;;;;;;25.29;57.35;99961.84;5109667;28;20516;-66
2022/09/10 11:08:33;;;;;;;2.72;1.90;;;;;;;25.37;56.85;99963.44;5108335;28;20065;-66
2022/09/10 11:11:12;;;;;;;4.85;1.67;;;;;;;25.34;56.43;99972.16;5108982;28;20020;-66
2022/09/10 11:13:54;;;;;;;4.72;1.70;;;;;;;25.16;54.67;99951.09;5109673;28;20501;-67
2022/09/10 11:16:30;;;;;;;2.75;1.83;;;;;;;25.29;55.08;99963.75;5110048;28;20089;-67
2022/09/10 11:19:35;;;;;;;2.88;1.40;;;;;;;25.29;53.84;99963.75;5109321;27;21168;-66
2022/09/10 11:22:12;;;;;;;1.08;1.00;;;;;;;25.30;52.48;99965.41;5073476;28;20043;-66
2022/09/10 11:25:19;;;;;;;0.80;0.80;;;;;;;25.09;52.91;99968.75;5104383;27;20035;-66
2022/09/10 11:27:58;;;;;;;3.53;0.90;;;;;;;25.01;51.21;99950.72;5099042;28;20407;-66
2022/09/10 11:30:24;;;;;;;1.77;0.88;;;;;;;25.14;49.81;99952.38;5104953;28;20039;-66
2022/09/10 11:33:12;;;;;;;1.15;0.80;;;;;;;25.03;52.15;99962.31;5107991;28;20132;-66
2022/09/10 11:35:47;;;;;;;1.77;0.82;;;;;;;25.04;52.19;99968.63;5097978;28;20046;-67
2022/09/10 11:38:48;;;;;;;0.90;0.60;;;;;;;25.16;50.53;99961.25;5109040;28;20036;-66